Silver Lane, Connecticut
Current Conditions -  °F | °C
As of 2:10 PM on Thursday 23 Oct 2014 (Local Time) from KHFD Reporting Station
Overcast Overcast  
Wind Chill: 53°   Ceiling: 1600
Heat Index: 53°   Visibility: 9mi
Dew Point: 47°   Wind: 17mph
Humidity: 80%   Direction: 360°N
Pressure: 29.65"   Gusts: 26mph
Location:  41.7568°N, 72.6217°W
Report Text: KHFD 231810Z 36015G23KT 9SM OVC016 12/08 A2965 RMK AO2 T01170083
Loading
Personal Weather Stations






























Interactive Weather Map
Tropical Storm Tracking
New forecast layout! Learn more

10-Day Weather Forecast

Advertisements
Track Severe Weather on mobile